Carnival Victory — 3FFL8 — position and weather

sailwx.info

Track history (hours):
 
Tides and Currents Weather Stations Pressure Air Temp Water Temp Dewpoint Dewpoint Depression Visibility Wind Speed Wind Dir Waves Ship Positions

Carnival Victory

Operator: Carnival Cruise Lines

Last reported at 2014-Oct-31 03:00 UTC. Time now 2014-Oct-31 17:57 UTC.
Position N 25°30' W 076°12'.

Type: Ship. MMSI: 355263000.

Wind from 290 at 2 knots

Waves 0.5 meters (2 feet), 5 second period

Barometer 1009.0 mb
Air temperature 25.0 ° C
Dewpoint 22.0 ° C
Water temperature 28.7 ° C

Date/timePositionNaut miles runAvg speedWind from/ knotsBaromVisibWave heightAir tempDewpointWater temp
2014-Oct-31 03:00N 25°30' W 076°12'   290 / 21009.0 0.525.022.028.7
2014-Oct-28 05:00N 25°54' W 078°00'2416.5 020 / 201014.0 2.026.623.030.0
2014-Oct-28 03:31N 26°06' W 078°24'3816.1
2014-Oct-28 01:09N 26°18' W 079°04'916.1
2014-Oct-28 00:33N 26°15' W 079°14'1717.3
2014-Oct-27 23:33N 26°05' W 079°30'1817.5
2014-Oct-27 22:33N 25°56' W 079°47'1717.0
2014-Oct-27 21:33N 25°47' W 080°03'7 5.7
2014-Oct-27 20:22N 25°47' W 080°10'0 0.0
2014-Oct-27 19:27N 25°47' W 080°10'0 0.0
2014-Oct-27 18:21N 25°47' W 080°10'0 0.0
2014-Oct-27 17:14N 25°47' W 080°10'519.7
2014-Oct-27 17:00N 25°42' W 080°12'5 8.1 020 / 201014.0 2.026.623.030.0
2014-Oct-27 16:23N 25°47' W 080°10'0 0.0
2014-Oct-27 15:32N 25°47' W 080°10'0 0.0
2014-Oct-27 14:10N 25°47' W 080°10'0 0.0
2014-Oct-27 13:22N 25°47' W 080°10'0 0.0
2014-Oct-27 11:33N 25°47' W 080°10'3 3.3
2014-Oct-27 10:33N 25°45' W 080°07'7 7.3
2014-Oct-27 09:33N 25°41' W 080°00'7613.7
2014-Oct-27 04:00N 24°48' W 081°00'40916.6 020 / 201014.0 2.026.623.030.0
2014-Oct-26 03:23N 20°41' W 086°53'1315.6
2014-Oct-26 02:33N 20°29' W 086°59'1 0.6
2014-Oct-26 01:25N 20°29' W 086°59'0 0.0
2014-Oct-26 00:31N 20°29' W 086°59'0 0.0
2014-Oct-25 23:30N 20°29' W 086°59'0 0.0
2014-Oct-25 22:30N 20°29' W 086°59'0 0.0
2014-Oct-25 21:23N 20°29' W 086°59'0 0.0
2014-Oct-25 20:23N 20°29' W 086°59'0 0.0
2014-Oct-25 18:28N 20°29' W 086°59'0 0.0
2014-Oct-25 17:28N 20°29' W 086°59'1 0.8
2014-Oct-25 16:33N 20°29' W 086°59'48011.9
2014-Oct-24 00:16N 25°18' W 080°02'1013.7
2014-Oct-23 23:33N 25°28' W 080°02'1312.8
2014-Oct-23 22:33N 25°40' W 080°02'9 9.1
2014-Oct-23 21:33N 25°46' W 080°09'1 0.8
2014-Oct-23 20:27N 25°47' W 080°10'0 0.0
2014-Oct-23 19:33N 25°47' W 080°10'0 0.0
2014-Oct-23 18:26N 25°47' W 080°10'0 0.0
2014-Oct-23 17:23N 25°47' W 080°10'0 0.0
2014-Oct-23 16:31N 25°47' W 080°10'0 0.0
2014-Oct-23 15:25N 25°47' W 080°10'0 0.0
2014-Oct-23 14:33N 25°47' W 080°10'0 0.0
2014-Oct-23 13:27N 25°47' W 080°10'0 0.0
2014-Oct-23 12:33N 25°47' W 080°10'0 0.1
2014-Oct-23 11:33N 25°47' W 080°10'8 7.6
2014-Oct-23 10:33N 25°47' W 080°02'1111.5
2014-Oct-23 09:33N 25°53' W 079°51'1413.9
2014-Oct-23 08:33N 26°01' W 079°38'1414.4
2014-Oct-23 07:33N 26°09' W 079°24'1515.4
2014-Oct-23 06:33N 26°17' W 079°10'  
Track history (hours):
 
Tides and Currents Weather Stations Pressure Air Temp Water Temp Dewpoint Dewpoint Depression Visibility Wind Speed Wind Dir Waves Ship Positions

Carnival Victory

Operator: Carnival Cruise Lines

Last reported at 2014-Oct-31 03:00 UTC. Time now 2014-Oct-31 17:57 UTC.
Position N 25°30' W 076°12'.

Type: Ship. MMSI: 355263000.

Wind from 290 at 2 knots

Waves 0.5 meters (2 feet), 5 second period

Barometer 1009.0 mb
Air temperature 25.0 ° C
Dewpoint 22.0 ° C
Water temperature 28.7 ° C

Date/timePositionNaut miles runAvg speedWind from/ knotsBaromVisibWave heightAir tempDewpointWater temp
2014-Oct-31 03:00N 25°30' W 076°12'   290 / 21009.0 0.525.022.028.7
2014-Oct-28 05:00N 25°54' W 078°00'2416.5 020 / 201014.0 2.026.623.030.0
2014-Oct-28 03:31N 26°06' W 078°24'3816.1
2014-Oct-28 01:09N 26°18' W 079°04'916.1
2014-Oct-28 00:33N 26°15' W 079°14'1717.3
2014-Oct-27 23:33N 26°05' W 079°30'1817.5
2014-Oct-27 22:33N 25°56' W 079°47'1717.0
2014-Oct-27 21:33N 25°47' W 080°03'7 5.7
2014-Oct-27 20:22N 25°47' W 080°10'0 0.0
2014-Oct-27 19:27N 25°47' W 080°10'0 0.0
2014-Oct-27 18:21N 25°47' W 080°10'0 0.0
2014-Oct-27 17:14N 25°47' W 080°10'519.7
2014-Oct-27 17:00N 25°42' W 080°12'5 8.1 020 / 201014.0 2.026.623.030.0
2014-Oct-27 16:23N 25°47' W 080°10'0 0.0
2014-Oct-27 15:32N 25°47' W 080°10'0 0.0
2014-Oct-27 14:10N 25°47' W 080°10'0 0.0
2014-Oct-27 13:22N 25°47' W 080°10'0 0.0
2014-Oct-27 11:33N 25°47' W 080°10'3 3.3
2014-Oct-27 10:33N 25°45' W 080°07'7 7.3
2014-Oct-27 09:33N 25°41' W 080°00'7613.7
2014-Oct-27 04:00N 24°48' W 081°00'40916.6 020 / 201014.0 2.026.623.030.0
2014-Oct-26 03:23N 20°41' W 086°53'1315.6
2014-Oct-26 02:33N 20°29' W 086°59'1 0.6
2014-Oct-26 01:25N 20°29' W 086°59'0 0.0
2014-Oct-26 00:31N 20°29' W 086°59'0 0.0
2014-Oct-25 23:30N 20°29' W 086°59'0 0.0
2014-Oct-25 22:30N 20°29' W 086°59'0 0.0
2014-Oct-25 21:23N 20°29' W 086°59'0 0.0
2014-Oct-25 20:23N 20°29' W 086°59'0 0.0
2014-Oct-25 18:28N 20°29' W 086°59'0 0.0
2014-Oct-25 17:28N 20°29' W 086°59'1 0.8
2014-Oct-25 16:33N 20°29' W 086°59'48011.9
2014-Oct-24 00:16N 25°18' W 080°02'1013.7
2014-Oct-23 23:33N 25°28' W 080°02'1312.8
2014-Oct-23 22:33N 25°40' W 080°02'9 9.1
2014-Oct-23 21:33N 25°46' W 080°09'1 0.8
2014-Oct-23 20:27N 25°47' W 080°10'0 0.0
2014-Oct-23 19:33N 25°47' W 080°10'0 0.0
2014-Oct-23 18:26N 25°47' W 080°10'0 0.0
2014-Oct-23 17:23N 25°47' W 080°10'0 0.0
2014-Oct-23 16:31N 25°47' W 080°10'0 0.0
2014-Oct-23 15:25N 25°47' W 080°10'0 0.0
2014-Oct-23 14:33N 25°47' W 080°10'0 0.0
2014-Oct-23 13:27N 25°47' W 080°10'0 0.0
2014-Oct-23 12:33N 25°47' W 080°10'0 0.1
2014-Oct-23 11:33N 25°47' W 080°10'8 7.6
2014-Oct-23 10:33N 25°47' W 080°02'1111.5
2014-Oct-23 09:33N 25°53' W 079°51'1413.9
2014-Oct-23 08:33N 26°01' W 079°38'1414.4
2014-Oct-23 07:33N 26°09' W 079°24'1515.4
2014-Oct-23 06:33N 26°17' W 079°10'  

Dump ship's entire track history